ADDS METAR Data INFO
IDs: Format: Raw Decoded Include TAF

Data at: 1514 UTC 16 Jan 2018

KNQX 161453Z 04015G24KT 10SM FEW060 FEW250 20/16 A3027 RMK AO2 SLP250 T02000161 51014 $